This is the latest recevied weather packets stored in our database for station/object WD0REW. If no packets are shown the sender has not sent any weather packets the latest 10 day(s).
| Time | Temp. | Humidity | Pressure | Rain* | Wind** | Luminosity | Snow |
|---|---|---|---|---|---|---|---|
| 1777653962 | 16.11° C | 35% | 1020 hPa | 0 mm | - | 772 W/m² | - |
| 1777653658 | 16.67° C | 33% | 1020.1 hPa | 0 mm | - | 767 W/m² | - |
| 1777653355 | 17.22° C | 35% | 1020.4 hPa | 0 mm | - | 759 W/m² | - |
| 1777653052 | 16.67° C | 39% | 1020.1 hPa | 0 mm | - | 741 W/m² | - |
| 1777652748 | 16.67° C | 43% | 1020.4 hPa | 0 mm | - | 743 W/m² | - |
| 1777652445 | 16.67° C | 39% | 1020.3 hPa | 0 mm | - | 736 W/m² | - |
| 1777652143 | 16.67° C | 40% | 1020.5 hPa | 0 mm | - | 713 W/m² | - |
| 1777651839 | 15.56° C | 45% | 1020.4 hPa | 0 mm | - | 713 W/m² | - |
| 1777651536 | 15.56° C | 41% | 1020.4 hPa | 0 mm | - | 675 W/m² | - |
| 1777651233 | 15.56° C | 40% | 1020.6 hPa | 0 mm | - | 647 W/m² | - |
| 1777650929 | 15.56° C | 41% | 1020.6 hPa | 0 mm | - | 548 W/m² | - |
| 1777650627 | 15° C | 42% | 1020.6 hPa | 0 mm | - | 531 W/m² | - |
| 1777650324 | 15° C | 41% | 1020.5 hPa | 0 mm | - | 645 W/m² | - |
| 1777650021 | 15° C | 41% | 1020.7 hPa | 0 mm | - | 638 W/m² | - |
| 1777649719 | 14.44° C | 43% | 1020.4 hPa | 0 mm | - | 618 W/m² | - |
| 1777649414 | 14.44° C | 42% | 1020.5 hPa | 0 mm | - | 495 W/m² | - |
| 1777649112 | 14.44° C | 46% | 1020.5 hPa | 0 mm | - | 543 W/m² | - |
| 1777648809 | 13.89° C | 48% | 1020.4 hPa | 0 mm | - | 442 W/m² | - |
| 1777648506 | 13.89° C | 46% | 1020.3 hPa | 0 mm | - | 419 W/m² | - |
| 1777648203 | 13.33° C | 43% | 1020 hPa | 0 mm | - | 364 W/m² | - |
| 1777647898 | 13.89° C | 42% | 1019.9 hPa | 0 mm | - | 481 W/m² | - |
| 1777647595 | 15° C | 41% | 1020.3 hPa | 0 mm | - | 465 W/m² | - |
| 1777647291 | 14.44° C | 44% | 1020.1 hPa | 0 mm | - | 520 W/m² | - |
| 1777646989 | 13.89° C | 43% | 1020.1 hPa | 0 mm | - | 522 W/m² | - |
| 1777646684 | 13.89° C | 43% | 1020 hPa | 0 mm | - | 478 W/m² | - |
* Rain latest hour (hover to see other rain measurements)
** Current wind speed in m/s (hover to see current wind gust speed)